H. Lee White — WZD2465 — position and weather

sailwx.info

Track history (hours):
 
Tides and Currents Weather Stations Pressure Air Temp Water Temp Dewpoint Dewpoint Depression Visibility Wind Speed Wind Dir Waves Ship Positions

H. Lee White

More information available from US FCC via Universal Licensing System and Coast Guard Vessel Documentation Center.

Last reported at 2014-Sep-01 18:33 UTC. Time now 2014-Sep-01 18:54 UTC.
Position N 45°53' W 085°17'.

Length 214 m; draft 6.4 m.

Type: Cargo ship. MMSI: 366938770.

Date/timePositionNaut miles runAvg speedWind from/ knotsBaromVisibWave heightAir tempDewpointWater temp
2014-Sep-01 18:33N 45°53' W 085°17'1111.5
2014-Sep-01 17:33N 45°51' W 085°01'1212.0
2014-Sep-01 16:33N 45°49' W 084°44'1211.8
2014-Sep-01 15:33N 45°43' W 084°29'1111.3
2014-Sep-01 14:33N 45°41' W 084°13'1211.9
2014-Sep-01 13:33N 45°35' W 083°58'  
2014-Aug-29 15:13N 45°12' W 083°12'8910.8 150 / 131022.6 5.4 0.5
2014-Aug-29 07:00N 43°54' W 082°12'   140 / 51023.0 15.5
2014-Aug-26 05:15N 45°31' W 083°20'811.4
2014-Aug-26 04:33N 45°37' W 083°28'1211.1
2014-Aug-26 03:29N 45°46' W 083°39'1410.9
2014-Aug-26 02:13N 45°56' W 083°53'52 5.9
2014-Aug-25 17:24N 46°35' W 084°43'1010.4
2014-Aug-25 16:27N 46°43' W 084°51'9810.8
2014-Aug-25 07:21N 46°36' W 087°14'7 1.7
2014-Aug-25 03:29N 46°35' W 087°23'49 4.3
2014-Aug-24 16:00N 46°42' W 086°12'82 7.1 130 / 91020.3 5.4 12.2
2014-Aug-24 04:27N 46°26' W 084°15'6 6.4
2014-Aug-24 03:33N 46°21' W 084°12'8 5.6
2014-Aug-24 02:11N 46°14' W 084°07'5 7.9
2014-Aug-24 01:33N 46°10' W 084°03'10 9.6
2014-Aug-24 00:33N 46°02' W 083°54'9 9.0
2014-Aug-23 23:33N 45°54' W 084°00'1211.7
2014-Aug-23 22:34N 45°51' W 084°16'1211.8
2014-Aug-23 21:33N 45°51' W 084°33'1110.6
2014-Aug-23 20:33N 45°49' W 084°48'1111.4
2014-Aug-23 19:33N 45°50' W 085°04'14911.9
2014-Aug-23 07:00N 43°48' W 087°06'   130 / 81018.2 1.1
Track history (hours):
 
Tides and Currents Weather Stations Pressure Air Temp Water Temp Dewpoint Dewpoint Depression Visibility Wind Speed Wind Dir Waves Ship Positions

H. Lee White

More information available from US FCC via Universal Licensing System and Coast Guard Vessel Documentation Center.

Last reported at 2014-Sep-01 18:33 UTC. Time now 2014-Sep-01 18:54 UTC.
Position N 45°53' W 085°17'.

Length 214 m; draft 6.4 m.

Type: Cargo ship. MMSI: 366938770.

Date/timePositionNaut miles runAvg speedWind from/ knotsBaromVisibWave heightAir tempDewpointWater temp
2014-Sep-01 18:33N 45°53' W 085°17'1111.5
2014-Sep-01 17:33N 45°51' W 085°01'1212.0
2014-Sep-01 16:33N 45°49' W 084°44'1211.8
2014-Sep-01 15:33N 45°43' W 084°29'1111.3
2014-Sep-01 14:33N 45°41' W 084°13'1211.9
2014-Sep-01 13:33N 45°35' W 083°58'  
2014-Aug-29 15:13N 45°12' W 083°12'8910.8 150 / 131022.6 5.4 0.5
2014-Aug-29 07:00N 43°54' W 082°12'   140 / 51023.0 15.5
2014-Aug-26 05:15N 45°31' W 083°20'811.4
2014-Aug-26 04:33N 45°37' W 083°28'1211.1
2014-Aug-26 03:29N 45°46' W 083°39'1410.9
2014-Aug-26 02:13N 45°56' W 083°53'52 5.9
2014-Aug-25 17:24N 46°35' W 084°43'1010.4
2014-Aug-25 16:27N 46°43' W 084°51'9810.8
2014-Aug-25 07:21N 46°36' W 087°14'7 1.7
2014-Aug-25 03:29N 46°35' W 087°23'49 4.3
2014-Aug-24 16:00N 46°42' W 086°12'82 7.1 130 / 91020.3 5.4 12.2
2014-Aug-24 04:27N 46°26' W 084°15'6 6.4
2014-Aug-24 03:33N 46°21' W 084°12'8 5.6
2014-Aug-24 02:11N 46°14' W 084°07'5 7.9
2014-Aug-24 01:33N 46°10' W 084°03'10 9.6
2014-Aug-24 00:33N 46°02' W 083°54'9 9.0
2014-Aug-23 23:33N 45°54' W 084°00'1211.7
2014-Aug-23 22:34N 45°51' W 084°16'1211.8
2014-Aug-23 21:33N 45°51' W 084°33'1110.6
2014-Aug-23 20:33N 45°49' W 084°48'1111.4
2014-Aug-23 19:33N 45°50' W 085°04'14911.9
2014-Aug-23 07:00N 43°48' W 087°06'   130 / 81018.2 1.1

Dump ship's entire track history